createdAt,value
2017-09-15T00:00:06.817Z,98.27
2017-09-15T00:01:06.777Z,98.36
2017-09-15T00:02:06.744Z,98.55
2017-09-15T00:03:06.709Z,97.79
2017-09-15T00:04:06.677Z,97.79
2017-09-15T00:05:06.644Z,97.99
2017-09-15T00:06:06.610Z,98.27
2017-09-15T00:07:06.577Z,98.46
2017-09-15T00:08:06.544Z,98.46
2017-09-15T00:09:06.509Z,98.27
2017-09-15T00:10:06.476Z,98.74
2017-09-15T00:11:06.441Z,99.22
2017-09-15T00:12:06.408Z,98.84
2017-09-15T00:13:06.376Z,99.03
2017-09-15T00:14:06.341Z,98.55
2017-09-15T00:15:06.307Z,98.46
2017-09-15T00:16:06.276Z,98.55
2017-09-15T00:17:06.241Z,98.46
2017-09-15T00:18:06.207Z,98.55
2017-09-15T00:19:07.003Z,98.27
2017-09-15T00:20:06.144Z,98.27
2017-09-15T00:21:06.101Z,98.36
2017-09-15T00:22:06.074Z,98.74
2017-09-15T00:23:06.041Z,98.65
2017-09-15T00:24:06.007Z,99.41
2017-09-15T00:25:05.974Z,99.32
2017-09-15T00:26:05.939Z,99.22
2017-09-15T00:27:05.909Z,99.22
2017-09-15T00:28:05.871Z,99.22
2017-09-15T00:29:06.291Z,98.84
2017-09-15T00:30:05.808Z,99.03
2017-09-15T00:31:05.767Z,99.03
2017-09-15T00:32:05.736Z,99.13
2017-09-15T00:33:05.705Z,99.03
2017-09-15T00:34:05.668Z,99.51
2017-09-15T00:35:05.638Z,99.55
2017-09-15T00:36:05.602Z,99.51
2017-09-15T00:37:05.571Z,99.60
2017-09-15T00:38:05.541Z,99.84
2017-09-15T00:39:05.502Z,99.84
2017-09-15T00:40:05.470Z,99.93
2017-09-15T00:41:05.434Z,99.99
2017-09-15T00:42:05.400Z,99.99
2017-09-15T00:43:05.367Z,99.36
2017-09-15T00:44:05.333Z,99.36
2017-09-15T00:45:05.302Z,99.93
2017-09-15T00:46:05.264Z,99.65
2017-09-15T00:47:05.231Z,99.65
2017-09-15T00:48:05.197Z,99.93
2017-09-15T00:49:05.165Z,99.74
2017-09-15T00:50:05.128Z,99.99
2017-09-15T00:51:05.095Z,99.99
2017-09-15T00:52:05.063Z,99.99
2017-09-15T00:53:05.029Z,99.99
2017-09-15T00:54:04.994Z,99.99
2017-09-15T00:55:04.959Z,99.99
2017-09-15T00:56:04.928Z,99.99
2017-09-15T00:57:04.892Z,99.99
2017-09-15T00:58:04.861Z,99.99
2017-09-15T00:59:04.825Z,99.99
2017-09-15T01:00:04.791Z,99.99
2017-09-15T01:01:04.759Z,99.99
2017-09-15T01:02:04.724Z,99.99
2017-09-15T01:03:04.690Z,99.99
2017-09-15T01:04:04.658Z,99.99
2017-09-15T01:05:04.623Z,99.99
2017-09-15T01:06:04.589Z,99.99
2017-09-15T01:07:04.556Z,99.99
2017-09-15T01:08:04.521Z,99.99
2017-09-15T01:09:04.488Z,99.99
2017-09-15T01:10:04.454Z,99.99
2017-09-15T01:11:04.421Z,99.99
2017-09-15T01:12:04.386Z,99.99
2017-09-15T01:13:04.354Z,99.99
2017-09-15T01:14:04.318Z,99.99
2017-09-15T01:15:04.286Z,99.99
2017-09-15T01:16:04.249Z,99.99
2017-09-15T01:17:04.219Z,99.99
2017-09-15T01:18:04.182Z,99.99
2017-09-15T01:19:04.150Z,99.99
2017-09-15T01:20:04.118Z,99.99
2017-09-15T01:21:04.082Z,99.99
2017-09-15T01:22:04.050Z,99.99
2017-09-15T01:23:04.017Z,99.99
2017-09-15T01:24:03.981Z,99.99
2017-09-15T01:25:03.949Z,99.99
2017-09-15T01:26:03.912Z,99.99
2017-09-15T01:27:03.882Z,99.99
2017-09-15T01:28:03.847Z,99.99
2017-09-15T01:29:03.816Z,99.99
2017-09-15T01:30:03.781Z,99.99
2017-09-15T01:31:03.746Z,99.99
2017-09-15T01:32:03.714Z,99.99
2017-09-15T01:33:03.681Z,99.99
2017-09-15T01:34:03.646Z,99.99
2017-09-15T01:35:03.613Z,99.99
2017-09-15T01:36:03.577Z,99.99
2017-09-15T01:37:03.548Z,99.99
2017-09-15T01:38:03.513Z,99.99
2017-09-15T01:39:03.480Z,99.99
2017-09-15T01:40:03.468Z,99.99
2017-09-15T01:41:03.421Z,99.99
2017-09-15T01:42:03.380Z,99.99
2017-09-15T01:43:03.347Z,99.99
2017-09-15T01:44:03.314Z,99.99
2017-09-15T01:45:03.280Z,99.99
2017-09-15T01:46:03.248Z,99.99
2017-09-15T01:47:03.214Z,99.99
2017-09-15T01:48:03.181Z,99.99
2017-09-15T01:49:03.147Z,99.99
2017-09-15T01:50:03.115Z,99.99
2017-09-15T01:51:03.081Z,99.99
2017-09-15T01:52:03.050Z,99.99
2017-09-15T01:53:03.017Z,99.99
2017-09-15T01:54:02.981Z,99.99
2017-09-15T01:55:02.946Z,99.99
2017-09-15T01:56:02.914Z,99.99
2017-09-15T01:57:02.882Z,99.99
2017-09-15T01:58:02.850Z,99.99
2017-09-15T01:59:02.815Z,99.99
2017-09-15T02:00:02.781Z,99.99
2017-09-15T02:01:02.750Z,99.99
2017-09-15T02:02:02.715Z,99.99
2017-09-15T02:03:02.682Z,99.99
2017-09-15T02:04:02.649Z,99.99
2017-09-15T02:05:02.616Z,99.99
2017-09-15T02:06:02.581Z,99.99
2017-09-15T02:07:02.546Z,99.99
2017-09-15T02:08:02.515Z,99.99
2017-09-15T02:09:02.483Z,99.99
2017-09-15T02:10:02.449Z,99.99
2017-09-15T02:11:02.408Z,99.99
2017-09-15T02:12:02.380Z,99.99
2017-09-15T02:13:02.347Z,99.99
2017-09-15T02:14:02.314Z,99.99
2017-09-15T02:15:02.280Z,99.99
2017-09-15T02:16:02.252Z,99.99
2017-09-15T02:17:02.214Z,99.99
2017-09-15T02:18:02.179Z,99.99
2017-09-15T02:19:02.145Z,99.99
2017-09-15T02:20:02.113Z,99.99
2017-09-15T02:21:02.078Z,99.99
2017-09-15T02:22:02.044Z,99.99
2017-09-15T02:23:02.011Z,99.99
2017-09-15T02:24:01.976Z,99.99
2017-09-15T02:25:01.943Z,99.99
2017-09-15T02:26:01.910Z,99.99
2017-09-15T02:27:01.875Z,99.99
2017-09-15T02:28:01.844Z,99.99
2017-09-15T02:29:01.819Z,99.99
2017-09-15T02:30:01.777Z,99.99
2017-09-15T02:31:01.745Z,99.99
2017-09-15T02:32:01.709Z,99.99
2017-09-15T02:33:01.676Z,99.99
2017-09-15T02:34:01.643Z,99.99
2017-09-15T02:35:01.608Z,99.99
2017-09-15T02:36:01.581Z,99.99
2017-09-15T02:37:01.543Z,99.99
2017-09-15T02:38:01.508Z,99.99
2017-09-15T02:39:01.474Z,99.99
2017-09-15T02:40:01.441Z,99.99
2017-09-15T02:41:01.406Z,99.99
2017-09-15T02:42:01.373Z,99.99
2017-09-15T02:43:01.340Z,99.99
2017-09-15T02:44:01.305Z,99.99
2017-09-15T02:45:01.273Z,99.99
2017-09-15T02:46:01.238Z,99.99
2017-09-15T02:47:01.204Z,99.99
2017-09-15T02:48:01.172Z,99.99
2017-09-15T02:49:01.138Z,99.99
2017-09-15T02:50:01.104Z,99.99
2017-09-15T02:51:01.081Z,99.99
2017-09-15T02:52:01.048Z,99.99
2017-09-15T02:53:01.006Z,99.99
2017-09-15T02:54:00.974Z,99.99
2017-09-15T02:55:00.934Z,99.99
2017-09-15T02:56:00.902Z,99.99
2017-09-15T02:57:00.870Z,99.99
2017-09-15T02:58:00.836Z,99.99
2017-09-15T02:59:00.803Z,99.99
2017-09-15T03:00:00.768Z,99.99
2017-09-15T03:01:00.736Z,99.99
2017-09-15T03:02:00.700Z,99.99
2017-09-15T03:03:00.667Z,99.99
2017-09-15T03:04:00.634Z,99.99
2017-09-15T03:05:00.604Z,99.99
2017-09-15T03:06:00.569Z,99.99
2017-09-15T03:07:00.532Z,99.99
2017-09-15T03:08:00.501Z,99.99
2017-09-15T03:09:00.472Z,99.99
2017-09-15T03:10:00.434Z,99.99
2017-09-15T03:11:00.399Z,99.99
2017-09-15T03:12:00.365Z,99.99
2017-09-15T03:13:00.333Z,99.99
2017-09-15T03:14:00.380Z,99.99
2017-09-15T03:15:00.268Z,99.99
2017-09-15T03:16:00.235Z,99.99
2017-09-15T03:17:00.382Z,99.99
2017-09-15T03:18:00.204Z,99.99
2017-09-15T03:19:00.129Z,99.99
2017-09-15T03:20:00.384Z,99.99
2017-09-15T03:21:00.068Z,99.99
2017-09-15T03:22:00.032Z,99.99
2017-09-15T03:22:59.997Z,99.99
2017-09-15T03:23:59.961Z,99.99
2017-09-15T03:24:59.932Z,99.99
2017-09-15T03:25:59.896Z,99.99
2017-09-15T03:26:59.860Z,99.99
2017-09-15T03:27:59.828Z,99.99
2017-09-15T03:28:59.794Z,99.99
2017-09-15T03:29:59.760Z,99.99
2017-09-15T03:30:59.733Z,99.99
2017-09-15T03:31:59.726Z,99.99
2017-09-15T03:32:59.659Z,99.99
2017-09-15T03:33:59.625Z,99.99
2017-09-15T03:34:59.594Z,99.99
2017-09-15T03:35:59.559Z,99.99
2017-09-15T03:36:59.526Z,99.99
2017-09-15T03:38:00.024Z,99.99
2017-09-15T03:38:59.458Z,99.99
2017-09-15T03:39:59.427Z,99.99
2017-09-15T03:40:59.393Z,99.99
2017-09-15T03:41:59.358Z,99.99
2017-09-15T03:42:59.324Z,99.99
2017-09-15T03:43:59.291Z,99.99
2017-09-15T03:44:59.257Z,99.99
2017-09-15T03:45:59.224Z,99.99
2017-09-15T03:46:59.191Z,99.99
2017-09-15T03:47:59.159Z,99.99
2017-09-15T03:48:59.124Z,99.99
2017-09-15T03:49:59.089Z,99.99
2017-09-15T03:50:59.061Z,99.99
2017-09-15T03:51:59.024Z,99.99
2017-09-15T03:52:58.992Z,99.99
2017-09-15T03:53:58.959Z,99.99
2017-09-15T03:54:58.922Z,99.99
2017-09-15T03:55:58.889Z,99.99
2017-09-15T03:56:58.857Z,99.99
2017-09-15T03:57:58.822Z,99.99
2017-09-15T03:58:58.789Z,99.99
2017-09-15T03:59:58.756Z,99.99
2017-09-15T04:00:58.723Z,99.99
2017-09-15T04:01:58.693Z,99.99
2017-09-15T04:02:58.658Z,99.99
2017-09-15T04:03:58.623Z,99.99
2017-09-15T04:04:58.590Z,99.99
2017-09-15T04:05:58.554Z,99.99
2017-09-15T04:06:58.522Z,99.99
2017-09-15T04:07:58.489Z,99.99
2017-09-15T04:08:58.455Z,99.99
2017-09-15T04:09:58.422Z,99.99
2017-09-15T04:10:58.389Z,99.99
2017-09-15T04:11:58.356Z,99.99
2017-09-15T04:12:58.322Z,99.99
2017-09-15T04:13:58.287Z,99.99
2017-09-15T04:14:58.256Z,99.99
2017-09-15T04:15:58.225Z,99.99
2017-09-15T04:16:58.189Z,99.99
2017-09-15T04:17:58.153Z,99.99
2017-09-15T04:18:58.121Z,99.99
2017-09-15T04:19:58.086Z,99.99
2017-09-15T04:20:58.054Z,99.99
2017-09-15T04:21:58.020Z,99.99
2017-09-15T04:22:57.987Z,99.99
2017-09-15T04:23:57.953Z,99.99
2017-09-15T04:24:57.922Z,99.99
2017-09-15T04:25:58.359Z,99.99
2017-09-15T04:26:57.858Z,99.99
2017-09-15T04:27:57.818Z,99.99
2017-09-15T04:28:57.786Z,99.99
2017-09-15T04:29:57.753Z,99.99
2017-09-15T04:30:57.719Z,99.99
2017-09-15T04:31:57.685Z,99.99
2017-09-15T04:32:57.652Z,99.99
2017-09-15T04:33:57.617Z,99.99
2017-09-15T04:34:57.585Z,99.99
2017-09-15T04:35:57.552Z,99.99
2017-09-15T04:36:57.519Z,99.99
2017-09-15T04:37:57.484Z,99.99
2017-09-15T04:38:57.606Z,99.99
2017-09-15T04:39:57.417Z,99.99
2017-09-15T04:40:57.384Z,99.99
2017-09-15T04:41:57.351Z,99.99
2017-09-15T04:42:57.317Z,99.99
2017-09-15T04:43:57.740Z,99.99
2017-09-15T04:44:57.250Z,99.99
2017-09-15T04:45:57.220Z,99.99
2017-09-15T04:46:57.183Z,99.99
2017-09-15T04:47:57.152Z,99.99
2017-09-15T04:48:57.116Z,99.99
2017-09-15T04:49:57.082Z,99.99
2017-09-15T04:50:57.048Z,99.99
2017-09-15T04:51:57.016Z,99.99
2017-09-15T04:52:56.983Z,99.99
2017-09-15T04:53:56.949Z,99.99
2017-09-15T04:54:56.913Z,99.99
2017-09-15T04:55:56.972Z,99.99
2017-09-15T04:56:56.850Z,99.99
2017-09-15T04:57:56.815Z,99.99
2017-09-15T04:58:56.782Z,99.99
2017-09-15T04:59:56.975Z,99.99
2017-09-15T05:00:56.715Z,99.99
2017-09-15T05:01:56.681Z,99.99
2017-09-15T05:02:56.649Z,99.99
2017-09-15T05:03:56.615Z,99.99
2017-09-15T05:04:56.583Z,99.99
2017-09-15T05:05:56.548Z,99.99
2017-09-15T05:06:56.513Z,99.99
2017-09-15T05:07:56.480Z,99.99
2017-09-15T05:08:56.450Z,99.99
2017-09-15T05:09:56.414Z,99.99
2017-09-15T05:10:56.380Z,99.99
2017-09-15T05:11:56.347Z,99.99
2017-09-15T05:12:56.314Z,99.99
2017-09-15T05:13:56.284Z,99.99
2017-09-15T05:14:56.249Z,99.99
2017-09-15T05:15:56.215Z,99.99
2017-09-15T05:16:56.179Z,99.99
2017-09-15T05:17:56.153Z,99.99
2017-09-15T05:18:56.116Z,99.99
2017-09-15T05:19:56.132Z,99.99
2017-09-15T05:20:56.049Z,99.99
2017-09-15T05:21:56.016Z,99.99
2017-09-15T05:22:55.982Z,99.99
2017-09-15T05:23:55.949Z,99.99
2017-09-15T05:24:55.911Z,99.99
2017-09-15T05:25:55.883Z,99.99
2017-09-15T05:26:55.847Z,99.99
2017-09-15T05:27:55.817Z,99.99
2017-09-15T05:28:55.784Z,99.99
2017-09-15T05:29:55.751Z,99.99
2017-09-15T05:30:55.717Z,99.99
2017-09-15T05:31:55.679Z,99.99
2017-09-15T05:32:55.653Z,99.99
2017-09-15T05:33:55.618Z,99.99
2017-09-15T05:34:55.584Z,99.99
2017-09-15T05:35:55.553Z,99.99
2017-09-15T05:36:55.520Z,99.99
2017-09-15T05:37:55.485Z,99.99
2017-09-15T05:38:55.451Z,99.99
2017-09-15T05:39:55.723Z,99.99
2017-09-15T05:40:55.455Z,99.99
2017-09-15T05:41:55.352Z,99.99
2017-09-15T05:42:55.318Z,99.99
2017-09-15T05:43:55.286Z,99.99
2017-09-15T05:44:55.253Z,99.99
2017-09-15T05:45:55.218Z,99.99
2017-09-15T05:46:55.501Z,99.99
2017-09-15T05:47:55.151Z,99.99
2017-09-15T05:48:55.120Z,99.99
2017-09-15T05:49:55.085Z,99.99
2017-09-15T05:50:55.051Z,99.99
2017-09-15T05:51:55.019Z,99.99
2017-09-15T05:52:54.984Z,99.99
2017-09-15T05:53:54.951Z,99.99
2017-09-15T05:54:54.917Z,99.99
2017-09-15T05:55:54.884Z,99.99
2017-09-15T05:56:54.851Z,99.99
2017-09-15T05:57:54.818Z,99.99
2017-09-15T05:58:54.783Z,99.99
2017-09-15T05:59:54.750Z,99.99
2017-09-15T06:00:54.716Z,99.99
2017-09-15T06:01:54.683Z,99.99
2017-09-15T06:02:54.649Z,99.99
2017-09-15T06:03:54.618Z,99.99
2017-09-15T06:04:54.586Z,99.99
2017-09-15T06:05:54.579Z,99.99
2017-09-15T06:06:54.517Z,99.99
2017-09-15T06:07:54.481Z,99.99
2017-09-15T06:08:54.449Z,99.99
2017-09-15T06:09:54.413Z,99.99
2017-09-15T06:10:54.383Z,99.99
2017-09-15T06:11:54.350Z,99.99
2017-09-15T06:12:54.314Z,99.99
2017-09-15T06:13:54.281Z,99.99
2017-09-15T06:14:54.256Z,99.99
2017-09-15T06:15:54.212Z,99.99
2017-09-15T06:16:54.182Z,99.99
2017-09-15T06:17:54.146Z,99.99
2017-09-15T06:18:54.113Z,99.99
2017-09-15T06:19:54.079Z,99.99
2017-09-15T06:20:54.047Z,99.99
2017-09-15T06:21:54.014Z,99.99
2017-09-15T06:22:53.978Z,99.99
2017-09-15T06:23:53.945Z,99.99
2017-09-15T06:24:53.909Z,99.99
2017-09-15T06:25:53.879Z,99.99
2017-09-15T06:26:53.846Z,99.99
2017-09-15T06:27:53.824Z,99.99
2017-09-15T06:28:53.779Z,99.99
2017-09-15T06:29:53.744Z,99.99
2017-09-15T06:30:53.715Z,99.99
2017-09-15T06:31:53.679Z,99.99
2017-09-15T06:32:53.647Z,99.99
2017-09-15T06:33:53.613Z,99.99
2017-09-15T06:34:53.578Z,99.99
2017-09-15T06:35:53.546Z,99.99
2017-09-15T06:36:53.514Z,99.99
2017-09-15T06:37:53.478Z,99.99
2017-09-15T06:38:53.450Z,99.99
2017-09-15T06:39:53.416Z,99.51
2017-09-15T06:40:53.385Z,99.32
2017-09-15T06:41:53.350Z,98.99
2017-09-15T06:42:53.323Z,98.61
2017-09-15T06:43:53.290Z,98.03
2017-09-15T06:44:53.256Z,98.61
2017-09-15T06:45:53.221Z,98.22
2017-09-15T06:46:53.189Z,96.89
2017-09-15T06:47:53.169Z,96.98
2017-09-15T06:48:53.127Z,96.98
2017-09-15T06:49:53.094Z,96.98
2017-09-15T06:50:53.061Z,97.08
2017-09-15T06:51:53.031Z,96.89
2017-09-15T06:52:52.994Z,97.17
2017-09-15T06:53:52.968Z,96.61
2017-09-15T06:54:52.935Z,96.51
2017-09-15T06:55:52.905Z,97.27
2017-09-15T06:56:52.872Z,96.61
2017-09-15T06:57:52.843Z,96.70
2017-09-15T06:58:52.809Z,97.37
2017-09-15T06:59:52.782Z,97.08
2017-09-15T07:00:52.746Z,97.27
2017-09-15T07:01:52.714Z,96.89
2017-09-15T07:02:52.682Z,97.75
2017-09-15T07:03:52.652Z,97.08
2017-09-15T07:04:52.619Z,97.08
2017-09-15T07:05:52.587Z,96.89
2017-09-15T07:06:52.574Z,96.98
2017-09-15T07:07:52.526Z,97.03
2017-09-15T07:08:52.495Z,95.98
2017-09-15T07:09:52.464Z,95.03
2017-09-15T07:10:52.430Z,95.03
2017-09-15T07:11:52.400Z,94.84
2017-09-15T07:12:52.371Z,94.74
2017-09-15T07:13:52.336Z,94.79
2017-09-15T07:14:52.307Z,92.69
2017-09-15T07:15:52.276Z,91.26
2017-09-15T07:16:52.245Z,91.16
2017-09-15T07:17:52.217Z,91.07
2017-09-15T07:18:52.186Z,91.36
2017-09-15T07:19:52.156Z,90.73
2017-09-15T07:20:52.125Z,91.21
2017-09-15T07:21:52.096Z,90.83
2017-09-15T07:22:52.066Z,90.45
2017-09-15T07:23:52.037Z,90.25
2017-09-15T07:24:52.007Z,89.30
2017-09-15T07:25:51.976Z,91.02
2017-09-15T07:26:52.168Z,91.11
2017-09-15T07:27:51.918Z,91.30
2017-09-15T07:28:51.889Z,91.97
2017-09-15T07:29:51.859Z,91.59
2017-09-15T07:30:51.828Z,90.45
2017-09-15T07:31:51.799Z,90.83
2017-09-15T07:32:51.769Z,91.21
2017-09-15T07:33:51.739Z,91.11
2017-09-15T07:34:52.486Z,91.40
2017-09-15T07:35:51.680Z,90.54
2017-09-15T07:36:51.651Z,89.87
2017-09-15T07:37:51.620Z,89.68
2017-09-15T07:38:51.586Z,89.68
2017-09-15T07:39:51.563Z,89.49
2017-09-15T07:40:51.532Z,88.82
2017-09-15T07:41:51.501Z,89.49
2017-09-15T07:42:51.471Z,90.31
2017-09-15T07:43:51.440Z,89.25
2017-09-15T07:44:51.484Z,89.83
2017-09-15T07:45:51.379Z,89.83
2017-09-15T07:46:51.348Z,90.31
2017-09-15T07:47:51.315Z,90.50
2017-09-15T07:48:51.288Z,91.74
2017-09-15T07:49:51.257Z,91.64
2017-09-15T07:50:51.227Z,91.55
2017-09-15T07:51:51.196Z,91.55
2017-09-15T07:52:51.165Z,91.36
2017-09-15T07:53:51.135Z,91.64
2017-09-15T07:54:51.105Z,90.78
2017-09-15T07:55:51.074Z,89.49
2017-09-15T07:56:51.044Z,89.49
2017-09-15T07:57:51.013Z,89.78
2017-09-15T07:58:50.986Z,88.25
2017-09-15T07:59:50.953Z,88.15
2017-09-15T08:00:50.924Z,87.05
2017-09-15T08:01:50.891Z,88.58
2017-09-15T08:02:50.861Z,88.10
2017-09-15T08:03:50.831Z,88.39
2017-09-15T08:04:50.801Z,87.82
2017-09-15T08:05:50.771Z,88.01
2017-09-15T08:06:50.738Z,87.24
2017-09-15T08:07:50.710Z,86.57
2017-09-15T08:08:50.678Z,86.10
2017-09-15T08:09:50.650Z,85.47
2017-09-15T08:10:50.620Z,84.52
2017-09-15T08:11:50.589Z,84.89
2017-09-15T08:12:50.563Z,84.13
2017-09-15T08:13:50.533Z,84.13
2017-09-15T08:14:50.501Z,84.36
2017-09-15T08:15:50.471Z,83.40
2017-09-15T08:16:50.441Z,83.89
2017-09-15T08:17:50.410Z,83.40
2017-09-15T08:18:50.382Z,81.34
2017-09-15T08:19:50.353Z,80.87
2017-09-15T08:20:50.326Z,80.19
2017-09-15T08:21:50.295Z,79.47
2017-09-15T08:22:50.265Z,77.46
2017-09-15T08:23:50.237Z,76.69
2017-09-15T08:24:50.209Z,76.06
2017-09-15T08:25:50.179Z,75.96
2017-09-15T08:26:50.149Z,74.24
2017-09-15T08:27:50.121Z,73.38
2017-09-15T08:28:50.094Z,74.33
2017-09-15T08:29:50.064Z,74.24
2017-09-15T08:30:50.038Z,74.27
2017-09-15T08:31:50.009Z,72.39
2017-09-15T08:32:49.996Z,71.53
2017-09-15T08:33:49.954Z,71.44
2017-09-15T08:34:49.927Z,71.15
2017-09-15T08:35:49.900Z,70.90
2017-09-15T08:36:49.872Z,69.65
2017-09-15T08:37:49.847Z,69.46
2017-09-15T08:38:49.820Z,70.67
2017-09-15T08:39:49.795Z,70.29
2017-09-15T08:40:49.768Z,69.62
2017-09-15T08:41:49.742Z,69.07
2017-09-15T08:42:49.718Z,68.40
2017-09-15T08:43:49.690Z,67.96
2017-09-15T08:44:49.666Z,67.47
2017-09-15T08:45:49.640Z,66.46
2017-09-15T08:46:49.870Z,65.40
2017-09-15T08:47:49.591Z,64.72
2017-09-15T08:48:49.566Z,65.75
2017-09-15T08:49:49.547Z,66.26
2017-09-15T08:50:49.516Z,64.72
2017-09-15T08:51:49.491Z,64.18
2017-09-15T08:52:49.469Z,62.29
2017-09-15T08:53:49.443Z,61.04
2017-09-15T08:54:49.422Z,60.11
2017-09-15T08:55:49.401Z,59.08
2017-09-15T08:56:49.378Z,58.34
2017-09-15T08:57:49.353Z,56.92
2017-09-15T08:58:49.332Z,55.77
2017-09-15T08:59:49.309Z,55.19
2017-09-15T09:00:49.289Z,55.00
2017-09-15T09:01:49.268Z,56.70
2017-09-15T09:02:49.252Z,57.54
2017-09-15T09:03:49.228Z,57.32
2017-09-15T09:04:49.208Z,58.15
2017-09-15T09:05:49.186Z,59.86
2017-09-15T09:06:49.166Z,61.55
2017-09-15T09:07:49.148Z,63.96
2017-09-15T09:08:49.127Z,62.52
2017-09-15T09:09:49.105Z,62.42
2017-09-15T09:10:49.081Z,62.32
2017-09-15T09:11:49.062Z,61.36
2017-09-15T09:12:49.041Z,62.29
2017-09-15T09:13:49.017Z,64.76
2017-09-15T09:14:48.995Z,63.73
2017-09-15T09:15:48.972Z,64.12
2017-09-15T09:16:48.953Z,62.13
2017-09-15T09:17:48.927Z,61.97
2017-09-15T09:18:48.904Z,61.58
2017-09-15T09:19:48.882Z,60.98
2017-09-15T09:20:48.861Z,61.24
2017-09-15T09:21:48.837Z,62.10
2017-09-15T09:22:48.815Z,63.06
2017-09-15T09:23:48.792Z,64.59
2017-09-15T09:24:48.769Z,62.13
2017-09-15T09:25:48.744Z,61.55
2017-09-15T09:26:48.721Z,62.04
2017-09-15T09:27:48.699Z,62.48
2017-09-15T09:28:48.674Z,63.25
2017-09-15T09:29:48.654Z,64.12
2017-09-15T09:30:48.628Z,63.64
2017-09-15T09:31:48.605Z,63.70
2017-09-15T09:32:48.579Z,65.05
2017-09-15T09:33:48.556Z,65.88
2017-09-15T09:34:48.530Z,66.99
2017-09-15T09:35:48.507Z,67.85
2017-09-15T09:36:48.480Z,67.91
2017-09-15T09:37:48.453Z,68.01
2017-09-15T09:38:48.428Z,69.45
2017-09-15T09:39:48.402Z,68.49
2017-09-15T09:40:48.376Z,69.60
2017-09-15T09:41:48.351Z,69.93
2017-09-15T09:42:48.321Z,69.99
2017-09-15T09:43:48.295Z,70.76
2017-09-15T09:44:48.952Z,71.33
2017-09-15T09:45:48.239Z,71.77
2017-09-15T09:46:48.216Z,73.30
2017-09-15T09:47:48.183Z,74.55
2017-09-15T09:48:48.155Z,74.99
2017-09-15T09:49:48.127Z,74.61
2017-09-15T09:50:48.107Z,72.50
2017-09-15T09:51:48.071Z,72.79
2017-09-15T09:52:48.043Z,73.55
2017-09-15T09:53:48.014Z,74.51
2017-09-15T09:54:47.984Z,75.62
2017-09-15T09:55:47.955Z,75.62
2017-09-15T09:56:47.927Z,76.00
2017-09-15T09:57:47.896Z,76.57
2017-09-15T09:58:47.867Z,76.16
2017-09-15T09:59:47.839Z,76.25
2017-09-15T10:00:47.808Z,75.87
2017-09-15T10:01:47.781Z,76.64
2017-09-15T10:02:47.750Z,76.54
2017-09-15T10:03:47.721Z,76.35
2017-09-15T10:04:47.691Z,76.25
2017-09-15T10:05:47.662Z,76.73
2017-09-15T10:06:47.632Z,76.54
2017-09-15T10:07:47.603Z,76.77
2017-09-15T10:08:47.597Z,76.29
2017-09-15T10:09:47.542Z,74.76
2017-09-15T10:10:47.512Z,74.38
2017-09-15T10:11:47.484Z,73.94
2017-09-15T10:12:47.455Z,72.50
2017-09-15T10:13:47.425Z,71.01
2017-09-15T10:14:47.396Z,70.41
2017-09-15T10:15:47.368Z,68.05
2017-09-15T10:16:47.341Z,66.67
2017-09-15T10:17:47.312Z,62.10
2017-09-15T10:18:47.287Z,59.41
2017-09-15T10:19:47.262Z,60.08
2017-09-15T10:20:47.236Z,59.06
2017-09-15T10:21:47.212Z,60.34
2017-09-15T10:22:47.190Z,58.32
2017-09-15T10:23:47.163Z,57.48
2017-09-15T10:24:47.137Z,57.77
2017-09-15T10:25:47.118Z,55.85
2017-09-15T10:26:47.093Z,57.48
2017-09-15T10:27:47.074Z,57.84
2017-09-15T10:28:47.049Z,58.03
2017-09-15T10:29:47.025Z,57.78
2017-09-15T10:30:47.003Z,58.36
2017-09-15T10:31:46.979Z,59.09
2017-09-15T10:32:46.956Z,60.05
2017-09-15T10:33:46.933Z,61.59
2017-09-15T10:34:46.906Z,61.65
2017-09-15T10:35:46.885Z,60.24
2017-09-15T10:36:46.863Z,58.89
2017-09-15T10:37:46.838Z,57.13
2017-09-15T10:38:46.816Z,55.20
2017-09-15T10:39:46.794Z,54.36
2017-09-15T10:40:46.773Z,53.55
2017-09-15T10:41:46.749Z,51.79
2017-09-15T10:42:46.729Z,52.37
2017-09-15T10:43:46.709Z,52.47
2017-09-15T10:44:46.687Z,51.53
2017-09-15T10:45:46.665Z,52.30
2017-09-15T10:46:46.644Z,52.56
2017-09-15T10:47:46.623Z,51.93
2017-09-15T10:48:46.604Z,53.06
2017-09-15T10:49:46.579Z,55.05
2017-09-15T10:50:46.558Z,56.98
2017-09-15T10:51:46.536Z,57.14
2017-09-15T10:52:46.518Z,56.95
2017-09-15T10:53:46.490Z,57.68
2017-09-15T10:54:46.468Z,59.09
2017-09-15T10:55:46.459Z,60.15
2017-09-15T10:56:46.422Z,59.67
2017-09-15T10:57:46.396Z,58.87
2017-09-15T10:58:46.373Z,59.26
2017-09-15T10:59:46.605Z,60.50
2017-09-15T11:00:46.322Z,58.71
2017-09-15T11:01:46.297Z,58.94
2017-09-15T11:02:46.732Z,57.07
2017-09-15T11:03:46.249Z,56.14
2017-09-15T11:04:46.224Z,53.28
2017-09-15T11:05:46.199Z,51.29
2017-09-15T11:06:46.176Z,51.12
2017-09-15T11:07:46.152Z,51.07
2017-09-15T11:08:46.128Z,52.68
2017-09-15T11:09:46.105Z,53.39
2017-09-15T11:10:46.079Z,57.68
2017-09-15T11:11:46.058Z,59.38
2017-09-15T11:12:46.032Z,58.81
2017-09-15T11:13:46.010Z,59.45
2017-09-15T11:14:45.982Z,61.56
2017-09-15T11:15:45.955Z,61.53
2017-09-15T11:16:45.930Z,62.30
2017-09-15T11:17:45.902Z,61.88
2017-09-15T11:18:45.877Z,63.03
2017-09-15T11:19:45.851Z,63.80
2017-09-15T11:20:45.832Z,64.31
2017-09-15T11:21:45.796Z,64.79
2017-09-15T11:22:45.770Z,64.89
2017-09-15T11:23:45.738Z,64.53
2017-09-15T11:24:45.718Z,64.02
2017-09-15T11:25:45.691Z,61.04
2017-09-15T11:26:45.665Z,55.43
2017-09-15T11:27:45.641Z,51.62
2017-09-15T11:28:45.616Z,49.89
2017-09-15T11:29:45.589Z,51.34
2017-09-15T11:30:45.568Z,51.82
2017-09-15T11:31:45.544Z,51.12
2017-09-15T11:32:45.520Z,48.90
2017-09-15T11:33:45.497Z,49.37
2017-09-15T11:34:45.473Z,51.58
2017-09-15T11:35:45.453Z,51.97
2017-09-15T11:36:45.430Z,50.16
2017-09-15T11:37:45.407Z,46.95
2017-09-15T11:38:45.387Z,47.19
2017-09-15T11:39:45.365Z,47.85
2017-09-15T11:40:45.343Z,49.51
2017-09-15T11:41:45.322Z,49.68
2017-09-15T11:42:45.299Z,46.97
2017-09-15T11:43:45.278Z,46.42
2017-09-15T11:44:45.257Z,46.34
2017-09-15T11:45:45.237Z,45.79
2017-09-15T11:46:45.215Z,42.60
2017-09-15T11:47:45.195Z,41.15
2017-09-15T11:48:45.173Z,40.84
2017-09-15T11:49:45.152Z,42.08
2017-09-15T11:50:45.132Z,43.72
2017-09-15T11:51:45.124Z,42.19
2017-09-15T11:52:45.096Z,40.19
2017-09-15T11:53:45.073Z,40.11
2017-09-15T11:54:45.053Z,40.19
2017-09-15T11:55:45.034Z,40.26
2017-09-15T11:56:45.016Z,40.65
2017-09-15T11:57:44.996Z,42.36
2017-09-15T11:58:44.976Z,43.38
2017-09-15T11:59:44.955Z,45.21
2017-09-15T12:00:44.936Z,47.12
2017-09-15T12:01:44.925Z,47.44
2017-09-15T12:02:44.896Z,48.28
2017-09-15T12:03:44.877Z,47.67
2017-09-15T12:04:44.860Z,48.02
2017-09-15T12:05:44.833Z,50.25
2017-09-15T12:06:44.812Z,50.63
2017-09-15T12:07:44.791Z,49.74
2017-09-15T12:08:44.771Z,50.15
2017-09-15T12:09:44.781Z,50.66
2017-09-15T12:10:44.725Z,49.70
2017-09-15T12:11:44.703Z,49.58
2017-09-15T12:12:44.686Z,50.73
2017-09-15T12:13:44.657Z,50.45
2017-09-15T12:14:44.640Z,50.10
2017-09-15T12:15:44.616Z,53.64
2017-09-15T12:16:44.594Z,55.82
2017-09-15T12:17:44.571Z,55.12
2017-09-15T12:18:44.548Z,55.51
2017-09-15T12:19:44.524Z,55.10
2017-09-15T12:20:44.501Z,54.71
2017-09-15T12:21:44.477Z,55.29
2017-09-15T12:22:44.453Z,56.73
2017-09-15T12:23:44.430Z,57.59
2017-09-15T12:24:44.404Z,59.22
2017-09-15T12:25:44.380Z,58.94
2017-09-15T12:26:44.356Z,60.88
2017-09-15T12:27:44.334Z,60.50
2017-09-15T12:28:44.309Z,58.87
2017-09-15T12:29:44.284Z,58.13
2017-09-15T12:30:44.260Z,57.70
2017-09-15T12:31:44.237Z,54.87
2017-09-15T12:32:44.214Z,54.10
2017-09-15T12:33:44.190Z,54.00
2017-09-15T12:34:44.168Z,55.45
2017-09-15T12:35:44.143Z,55.81
2017-09-15T12:36:44.121Z,53.69
2017-09-15T12:37:44.702Z,54.10
2017-09-15T12:38:44.074Z,53.55
2017-09-15T12:39:44.050Z,51.36
2017-09-15T12:40:44.031Z,50.11
2017-09-15T12:41:44.016Z,47.70
2017-09-15T12:42:43.983Z,46.73
2017-09-15T12:43:43.966Z,46.14
2017-09-15T12:44:43.939Z,45.44
2017-09-15T12:45:43.916Z,46.57
2017-09-15T12:46:43.895Z,48.08
2017-09-15T12:47:44.033Z,48.64
2017-09-15T12:48:43.849Z,50.25
2017-09-15T12:49:43.825Z,50.23
2017-09-15T12:50:43.799Z,50.99
2017-09-15T12:51:43.785Z,51.18